NCAR-RAP Real-Time Weather Data

Output produced by METARs form (16 August 2018  19:23 UTC)
found at http://weather.rap.ucar.edu/surface/
 
RJCB 161134Z 34008KT 5000 -SHRA BR FEW004 BKN050 13/12 Q1006 RMK 1ST004 7CU050 A2972
RJCB 161100Z 34010KT 4000 SHRA BR FEW004 SCT020 BKN035 13/12 Q1006
RJCB 161000Z 36014KT 4000 SHRA BR FEW004 SCT012 BKN020 14/12 Q1004
RJCB 160900Z 35010KT 310V010 4000 SHRA BR FEW004 SCT010 BKN015 14/14 Q1004
RJCB 160800Z 03003KT 350V070 4000 SHRA BR FEW004 SCT018 BKN025 15/14 Q1004
RJCB 160741Z 36006KT 4500 SHRA BR FEW004 SCT008 BKN025 15/14 Q1004 RMK 1ST004 4ST008 7CU025 A2965
RJCB 160719Z 07003KT 010V140 4900 SHRA BR FEW004 BKN008 BKN025 15/14 Q1004 RMK 1ST004 5ST008 7CU025 A2965
RJCB 160700Z VRB02KT 5000 SHRA BR FEW004 SCT012 BKN025 15/14 Q1003
RJCB 160627Z 07003KT 030V110 5000 -SHRA BR FEW004 SCT020 BKN030 15/14 Q1004 RMK 1ST004 4CU020 7CU030 A2965
RJCB 160600Z VRB04KT 4500 SHRA BR FEW004 BKN030 15/14 Q1004
RJCB 160515Z VRB02KT 4000 R35/1700D SHRA BR FEW004 SCT012 BKN025 15/14 Q1005 RMK 1ST004 3ST012 7CU025 A2969
RJCB 160510Z 13003KT 100V170 4900 -SHRA BR FEW004 SCT012 BKN025 15/15 Q1005 RMK 1ST004 3ST012 7CU025 A2969
RJCB 160500Z 12003KT 060V150 5000 -SHRA BR FEW004 SCT012 BKN025 15/14 Q1005
RJCB 160400Z 08003KT 020V120 4000 R35/1800U SHRA BR FEW004 SCT015 BKN020 15/15 Q1006
RJCB 160330Z 04004KT 350V070 4500 SHRA BR FEW003 SCT008 BKN012 16/15 Q1006 RMK 1ST003 4ST008 7ST012 A2973
RJCB 160300Z VRB02KT 3500 SHRA BR FEW003 SCT005 BKN008 16/15 Q1007
RJCB 160241Z VRB02KT 3500 SHRA BR FEW003 SCT006 BKN008 16/15 Q1007 RMK 1ST003 4ST006 7ST008 A2974
RJCB 160200Z VRB02KT 4500 -SHRA BR FEW002 SCT004 BKN008 16/15 Q1007
RJCB 160120Z VRB02KT 4000 -SHRA BR FEW002 SCT004 BKN008 16/15 Q1008 RMK 1ST002 4ST004 7ST008 A2977
RJCB 160100Z VRB01KT 4000 SHRA BR FEW002 BKN004 BKN006 15/15 Q1008
RJCB 160000Z 10004KT 050V130 3200 SHRA BR FEW002 BKN004 BKN006 15/15 Q1008
RJCB 152329Z 15004KT 120V200 3000 SHRA BR FEW002 BKN004 BKN006 15/15 Q1009 RMK 1ST002 5ST004 7ST006 A2981
RJCB 152323Z 16003KT 120V200 3100 -SHRA BR FEW002 BKN004 BKN006 15/15 Q1009 RMK 1ST002 5ST004 7ST006 A2980
RJCB 152300Z VRB02KT 4500 -SHRA BR FEW002 BKN004 BKN006 15/15 Q1009
RJCB 152240Z 15003KT 110V190 3500 -SHRA BR FEW002 SCT005 BKN008 15/15 Q1009 RMK 1ST002 4ST005 7ST008 A2981
RJCB 151135Z VRB02KT 3200 -SHRA BR FEW003 SCT008 BKN020 16/16 Q1014 RMK 1ST003 3ST008 7CU020 A2995
RJCB 151100Z VRB01KT 3000 SHRA BR FEW003 SCT020 BKN030 16/16 Q1014
RJCB 151046Z VRB02KT 3100 SHRA BR FEW003 SCT020 BKN030 16/16 Q1014 RMK 1ST003 4CU020 7CU030 A2995
RJCB 151034Z 11003KT 080V150 3200 -SHRA BR FEW003 SCT020 BKN030 16/16 Q1014 RMK 1ST003 4CU020 7CU030 A2995
RJCB 151000Z 10004KT 3000 SHRA BR FEW003 SCT015 BKN020 16/16 Q1013
RJCB 150946Z 10005KT 3000 -SHRA BR FEW003 SCT006 BKN018 16/16 Q1013 RMK 1ST003 4ST006 7ST018 A2993
RJCB 150920Z 09003KT 050V120 3100 SHRA BR FEW003 BKN006 BKN014 16/16 Q1013 RMK 1ST003 5ST006 7ST014 A2992
RJCB 150900Z 08005KT 3200 -SHRA BR FEW003 BKN008 BKN012 17/16 Q1013
RJCB 150800Z 13005KT 3100 -SHRA BR FEW003 BKN008 BKN012 17/17 Q1012
RJCB 150700Z 14009KT 4900 -SHRA BR FEW003 SCT006 BKN008 17/17 Q1012
RJCB 150630Z 15008KT 9999 -SHRA FEW004 BKN008 BKN012 18/17 Q1012 RMK 1ST004 5ST008 7ST012 A2991
RJCB 150600Z 15006KT 9999 -SHRA FEW004 SCT007 BKN014 18/17 Q1013
RJCB 150500Z 15007KT 8000 -SHRA FEW004 SCT007 BKN014 19/17 Q1013
RJCB 150400Z 16006KT 9999 -SHRA FEW004 SCT007 BKN012 19/17 Q1013
RJCB 150300Z 12006KT 080V150 8000 -SHRA FEW004 SCT007 BKN013 18/17 Q1013
RJCB 150236Z 14005KT 5000 -SHRA BR FEW004 SCT008 BKN030 18/18 Q1013 RMK 1ST004 3ST008 7CU030 A2994
RJCB 150200Z 11004KT 3200 -SHRA BR FEW004 SCT008 BKN015 18/18 Q1014
RJCB 150135Z VRB02KT 3100 R35/0900VP1800N SHRA BR FEW004 SCT008 BKN010 18/17 Q1013 RMK 1ST004 3ST008 7ST010 A2994
RJCB 150129Z 11004KT 4900 R35/0900VP1800D SHRA BR FEW004 SCT008 BKN010 18/17 Q1013 RMK 1ST004 3ST008 7ST010 A2993
RJCB 150118Z 10004KT 070V130 6000 SHRA FEW004 SCT008 BKN010 18/17 Q1013 RMK 1ST004 3ST008 7ST010 A2992
RJCB 150100Z 12006KT 8000 -SHRA FEW004 SCT009 BKN015 18/17 Q1013
RJCB 150000Z 11004KT 8000 -SHRA FEW004 SCT009 BKN012 19/18 Q1013
RJCB 142347Z 12004KT 090V150 8000 -SHRA FEW003 SCT009 BKN012 19/18 Q1013 RMK 1ST003 4ST009 7ST012 A2993
RJCB 142300Z 11003KT 090V150 5000 -SHRA BR FEW002 BKN007 BKN012 18/18 Q1013
RJCB 142240Z 12005KT 3500 -SHRA BR FEW002 SCT012 BKN018 19/18 Q1013 RMK 1ST002 3ST012 7ST018 A2992
RJCB 141137Z 13003KT 9999 -SHRA FEW003 BKN006 BKN050 19/19 Q1013 RMK 1ST003 5ST006 7CU050 A2992
RJCB 141100Z 16003KT 140V210 9999 -SHRA FEW004 SCT006 BKN050 19/19 Q1012
RJCB 141000Z 16003KT 9999 -SHRA FEW004 SCT008 BKN050 20/19 Q1012
RJCB 140941Z 15005KT 9999 -SHRA FEW004 SCT008 BKN050 20/19 Q1012 RMK 1ST004 4ST008 7CU050 A2990
RJCB 140921Z 15003KT 9999 FEW004 BKN008 BKN018 20/19 Q1012 RMK 1ST004 5ST008 7ST018 A2990
RJCB 140900Z 16003KT 140V200 9999 -SHRA FEW004 SCT006 BKN018 20/19 Q1012
RJCB 140810Z 16005KT 8000 -SHRA FEW012 BKN018 20/19 Q1012 RMK 2ST012 6ST018 A2989
RJCB 140800Z 15004KT 6000 SHRA FEW013 BKN018 21/19 Q1012
RJCB 140749Z VRB02KT 6000 SHRA FEW013 BKN018 21/19 Q1012 RMK 1ST013 7ST018 A2989